Time;durP1;ratioP1;P1;durP2;ratioP2;P2;SDS_P1;SDS_P2;PMS_P1;PMS_P2;Temp;Humidity;BMP_temperature;BMP_pressure;BME280_temperature;BME280_humidity;BME280_pressure;Samples;Min_cycle;Max_cycle;Signal;HPM_P1;HPM_P2
2022/04/12 00:00:34;;;;;;;3.05;1.98;;;;;;;;;;7394845;19;19995;-81
2022/04/12 00:02:59;;;;;;;4.57;2.13;;;;;;;;;;7396118;19;20001;-81
2022/04/12 00:05:25;;;;;;;4.63;2.33;;;;;;;;;;7395655;19;19995;-81
2022/04/12 00:07:51;;;;;;;2.88;1.67;;;;;;;;;;7400243;19;19994;-81
2022/04/12 00:10:16;;;;;;;2.85;1.92;;;;;;;;;;7398304;19;19994;-81
2022/04/12 00:12:42;;;;;;;4.13;1.88;;;;;;;;;;7400246;19;20074;-80
2022/04/12 00:15:09;;;;;;;4.65;2.45;;;;;;;;;;7393053;19;20003;-81
2022/04/12 00:20:28;;;;;;;3.80;2.22;;;;;;;;;;7392797;19;20724;-81
2022/04/12 00:22:54;;;;;;;3.97;1.85;;;;;;;;;;7396662;19;20003;-80
2022/04/12 00:25:22;;;;;;;3.65;2.17;;;;;;;;;;7394830;19;20010;-81
2022/04/12 00:27:48;;;;;;;4.80;1.90;;;;;;;;;;7395366;19;20034;-80
2022/04/12 00:30:14;;;;;;;3.75;2.58;;;;;;;;;;7392363;19;20015;-80
2022/04/12 00:32:39;;;;;;;3.08;2.20;;;;;;;;;;7397103;19;20011;-81
2022/04/12 00:35:06;;;;;;;5.00;2.13;;;;;;;;;;7393409;19;19999;-81
2022/04/12 00:37:31;;;;;;;4.47;1.98;;;;;;;;;;7394821;19;20007;-81
2022/04/12 00:39:56;;;;;;;6.30;1.92;;;;;;;;;;7395146;19;19999;-81
2022/04/12 00:42:22;;;;;;;3.15;2.08;;;;;;;;;;7395563;19;20465;-81
2022/04/12 00:44:48;;;;;;;5.07;2.42;;;;;;;;;;7399534;19;20115;-82
2022/04/12 00:47:14;;;;;;;4.63;1.90;;;;;;;;;;7396115;19;20413;-80
2022/04/12 00:49:40;;;;;;;3.88;2.20;;;;;;;;;;7393672;19;20023;-82
2022/04/12 00:52:07;;;;;;;5.10;2.40;;;;;;;;;;7395532;19;20002;-82
2022/04/12 00:54:34;;;;;;;4.22;2.28;;;;;;;;;;7395174;19;20006;-80
2022/04/12 00:56:59;;;;;;;4.05;1.90;;;;;;;;;;7399091;19;20002;-81
2022/04/12 00:59:25;;;;;;;2.88;1.70;;;;;;;;;;7397870;19;20013;-81
2022/04/12 01:01:51;;;;;;;4.28;1.85;;;;;;;;;;7399835;19;19995;-81
2022/04/12 01:04:16;;;;;;;3.38;1.80;;;;;;;;;;7396248;19;20006;-81
2022/04/12 01:06:42;;;;;;;6.70;2.17;;;;;;;;;;7397061;19;19999;-81
2022/04/12 01:09:09;;;;;;;3.75;2.13;;;;;;;;;;7396067;19;20001;-80
2022/04/12 01:11:35;;;;;;;3.38;1.77;;;;;;;;;;7396084;19;20028;-81
2022/04/12 01:14:01;;;;;;;3.55;1.90;;;;;;;;;;7395654;19;19994;-81
2022/04/12 01:16:27;;;;;;;3.15;1.85;;;;;;;;;;7396882;19;20005;-81
2022/04/12 01:18:52;;;;;;;3.38;1.98;;;;;;;;;;7397313;19;20006;-81
2022/04/12 01:21:18;;;;;;;3.45;1.90;;;;;;;;;;7395651;19;20049;-81
2022/04/12 01:23:49;;;;;;;3.65;1.98;;;;;;;;;;7395458;19;20078;-80
2022/04/12 01:26:15;;;;;;;3.08;1.67;;;;;;;;;;7397207;19;19997;-82
2022/04/12 01:28:44;;;;;;;3.28;2.00;;;;;;;;;;7393771;19;20015;-81
2022/04/12 01:31:09;;;;;;;2.38;1.75;;;;;;;;;;7395513;19;20588;-81
2022/04/12 01:33:35;;;;;;;4.03;2.22;;;;;;;;;;7395885;19;20013;-81
2022/04/12 01:36:00;;;;;;;3.63;1.92;;;;;;;;;;7395689;19;20471;-82
2022/04/12 01:38:25;;;;;;;4.28;1.92;;;;;;;;;;7395671;19;20007;-81
2022/04/12 01:40:50;;;;;;;3.78;2.05;;;;;;;;;;7395441;19;20003;-81
2022/04/12 01:43:16;;;;;;;4.20;2.15;;;;;;;;;;7395928;19;20864;-82
2022/04/12 01:45:41;;;;;;;4.50;2.28;;;;;;;;;;7398167;19;20026;-81
2022/04/12 01:48:06;;;;;;;2.90;1.50;;;;;;;;;;7398558;19;20006;-80
2022/04/12 01:50:32;;;;;;;4.70;2.03;;;;;;;;;;7395993;19;20024;-81
2022/04/12 01:52:57;;;;;;;3.03;1.88;;;;;;;;;;7397005;19;19999;-81
2022/04/12 01:55:22;;;;;;;2.95;1.73;;;;;;;;;;7392351;19;20099;-82
2022/04/12 01:57:48;;;;;;;3.15;2.00;;;;;;;;;;7393067;19;20090;-80
2022/04/12 02:00:13;;;;;;;3.42;1.98;;;;;;;;;;7390391;19;19998;-81
2022/04/12 02:02:38;;;;;;;4.93;1.85;;;;;;;;;;7393874;19;20035;-81
2022/04/12 02:05:04;;;;;;;3.38;1.90;;;;;;;;;;7391825;19;20005;-81
2022/04/12 02:07:29;;;;;;;3.90;2.17;;;;;;;;;;7394683;19;20079;-80
2022/04/12 02:09:55;;;;;;;3.90;1.88;;;;;;;;;;7393765;19;20051;-82
2022/04/12 02:12:20;;;;;;;2.85;1.83;;;;;;;;;;7395100;19;20031;-80
2022/04/12 02:14:45;;;;;;;2.72;1.70;;;;;;;;;;7394255;19;20007;-80
2022/04/12 02:17:10;;;;;;;3.38;2.05;;;;;;;;;;7394578;19;20030;-82
2022/04/12 02:19:36;;;;;;;2.60;1.60;;;;;;;;;;7392592;19;20010;-81
2022/04/12 02:22:01;;;;;;;2.00;1.40;;;;;;;;;;7395812;19;19995;-81
2022/04/12 02:24:26;;;;;;;2.25;1.38;;;;;;;;;;7395397;19;20470;-81
2022/04/12 02:26:51;;;;;;;3.47;1.73;;;;;;;;;;7395992;19;20154;-81
2022/04/12 02:29:17;;;;;;;3.60;1.92;;;;;;;;;;7396064;19;20013;-81
2022/04/12 02:31:42;;;;;;;5.03;2.05;;;;;;;;;;7396296;19;20002;-81
2022/04/12 02:34:08;;;;;;;3.70;1.77;;;;;;;;;;7396323;19;20027;-80
2022/04/12 02:36:34;;;;;;;5.60;1.80;;;;;;;;;;7399746;19;20027;-81
2022/04/12 02:38:59;;;;;;;3.60;2.00;;;;;;;;;;7391937;19;19998;-81
2022/04/12 02:41:24;;;;;;;3.30;1.70;;;;;;;;;;7390987;19;20022;-81
2022/04/12 02:43:49;;;;;;;3.90;1.98;;;;;;;;;;7392056;19;20078;-80
2022/04/12 02:46:15;;;;;;;2.80;1.52;;;;;;;;;;7390736;19;20046;-80
2022/04/12 02:48:40;;;;;;;2.58;1.67;;;;;;;;;;7390099;19;20003;-80
2022/04/12 02:51:05;;;;;;;3.03;2.00;;;;;;;;;;7388785;19;19998;-81
2022/04/12 02:53:31;;;;;;;4.32;2.30;;;;;;;;;;7390187;19;20010;-80
2022/04/12 02:55:56;;;;;;;3.97;1.85;;;;;;;;;;7389549;19;20009;-81
2022/04/12 02:58:22;;;;;;;2.45;1.52;;;;;;;;;;7388611;19;19999;-81
2022/04/12 03:00:47;;;;;;;4.78;1.88;;;;;;;;;;7396520;19;19995;-80
2022/04/12 03:03:12;;;;;;;4.43;2.30;;;;;;;;;;7398188;19;20070;-79
2022/04/12 03:05:37;;;;;;;2.75;1.80;;;;;;;;;;7396540;19;19990;-80
2022/04/12 03:08:03;;;;;;;2.08;1.67;;;;;;;;;;7399210;19;19991;-81
2022/04/12 03:10:29;;;;;;;2.78;1.70;;;;;;;;;;7397433;19;19991;-81
2022/04/12 03:12:54;;;;;;;1.95;1.48;;;;;;;;;;7398451;19;20054;-81
2022/04/12 03:15:20;;;;;;;2.65;1.42;;;;;;;;;;7396823;19;20391;-79
2022/04/12 03:17:46;;;;;;;3.58;1.92;;;;;;;;;;7398190;19;20014;-80
2022/04/12 03:20:12;;;;;;;2.30;1.23;;;;;;;;;;7395337;19;20379;-80
2022/04/12 03:22:37;;;;;;;4.18;1.23;;;;;;;;;;7397732;19;19998;-81
2022/04/12 03:25:03;;;;;;;3.13;1.73;;;;;;;;;;7398722;19;19998;-81
2022/04/12 03:27:28;;;;;;;3.17;1.40;;;;;;;;;;7401128;19;20062;-80
2022/04/12 03:29:53;;;;;;;3.55;1.92;;;;;;;;;;7395738;19;20005;-80
2022/04/12 03:32:19;;;;;;;3.17;1.77;;;;;;;;;;7398170;19;19999;-81
2022/04/12 03:34:45;;;;;;;2.45;1.48;;;;;;;;;;7394680;19;20412;-80
2022/04/12 03:37:10;;;;;;;2.85;1.70;;;;;;;;;;7396870;19;20349;-80
2022/04/12 03:39:36;;;;;;;4.07;1.55;;;;;;;;;;7397743;19;19998;-80
2022/04/12 03:42:01;;;;;;;2.22;1.65;;;;;;;;;;7396702;19;19998;-80
2022/04/12 03:44:26;;;;;;;3.80;2.00;;;;;;;;;;7399099;19;19995;-80
2022/04/12 03:46:52;;;;;;;3.75;1.83;;;;;;;;;;7397745;19;20005;-80
2022/04/12 03:49:17;;;;;;;1.95;1.45;;;;;;;;;;7399811;19;20015;-81
2022/04/12 03:51:42;;;;;;;3.95;2.05;;;;;;;;;;7397713;19;20014;-81
2022/04/12 03:54:08;;;;;;;3.83;1.85;;;;;;;;;;7396587;19;20213;-81
2022/04/12 03:56:34;;;;;;;3.25;1.92;;;;;;;;;;7397314;19;20007;-80
2022/04/12 03:58:59;;;;;;;3.25;1.92;;;;;;;;;;7395363;19;20330;-80
2022/04/12 04:01:25;;;;;;;4.40;1.73;;;;;;;;;;7395835;19;20003;-79
2022/04/12 04:03:51;;;;;;;3.88;2.25;;;;;;;;;;7396769;19;20029;-80
2022/04/12 04:06:16;;;;;;;3.50;1.55;;;;;;;;;;7397737;19;20010;-80
2022/04/12 04:08:41;;;;;;;2.88;2.15;;;;;;;;;;7397652;19;20369;-79
2022/04/12 04:11:06;;;;;;;2.40;1.35;;;;;;;;;;7396863;19;19994;-80
2022/04/12 04:13:36;;;;;;;2.70;1.65;;;;;;;;;;7397840;19;19991;-80
2022/04/12 04:16:02;;;;;;;1.88;1.25;;;;;;;;;;7398819;19;20015;-81
2022/04/12 04:18:27;;;;;;;2.17;1.42;;;;;;;;;;7401576;19;19991;-81
2022/04/12 04:20:52;;;;;;;1.58;1.42;;;;;;;;;;7396411;19;19999;-80
2022/04/12 04:23:18;;;;;;;2.75;1.58;;;;;;;;;;7397417;19;20014;-79
2022/04/12 04:25:43;;;;;;;2.35;1.40;;;;;;;;;;7395305;19;19998;-80
2022/04/12 04:28:11;;;;;;;2.92;1.65;;;;;;;;;;7395440;19;20319;-80
2022/04/12 04:30:38;;;;;;;3.30;1.65;;;;;;;;;;7398653;19;20459;-79
2022/04/12 04:33:04;;;;;;;5.78;1.50;;;;;;;;;;7397827;19;20002;-80
2022/04/12 04:35:29;;;;;;;3.53;1.77;;;;;;;;;;7397545;19;20019;-80
2022/04/12 04:37:54;;;;;;;3.15;1.77;;;;;;;;;;7400194;19;20489;-79
2022/04/12 04:40:21;;;;;;;3.33;1.90;;;;;;;;;;7396682;19;20007;-80
2022/04/12 04:42:49;;;;;;;2.13;1.30;;;;;;;;;;7398050;19;20001;-80
2022/04/12 04:45:15;;;;;;;2.33;1.58;;;;;;;;;;7398474;19;20300;-80
2022/04/12 04:47:54;;;;;;;3.28;1.70;;;;;;;;;;7398398;19;20402;-79
2022/04/12 04:50:22;;;;;;;2.42;1.58;;;;;;;;;;7398086;19;19995;-81
2022/04/12 04:52:48;;;;;;;2.78;1.50;;;;;;;;;;7399608;19;19999;-80
2022/04/12 04:55:14;;;;;;;2.65;1.65;;;;;;;;;;7400294;19;20002;-80
2022/04/12 04:57:41;;;;;;;3.90;2.05;;;;;;;;;;7425147;19;20019;-78
2022/04/12 05:00:08;;;;;;;3.40;2.13;;;;;;;;;;7423610;19;20048;-78
2022/04/12 05:02:34;;;;;;;2.78;1.80;;;;;;;;;;7424089;19;20035;-78
2022/04/12 05:05:00;;;;;;;2.53;1.60;;;;;;;;;;7425510;19;19999;-78
2022/04/12 05:07:26;;;;;;;3.00;1.77;;;;;;;;;;7413007;19;20078;-80
2022/04/12 05:09:52;;;;;;;2.28;1.70;;;;;;;;;;7395961;19;20016;-79
2022/04/12 05:12:18;;;;;;;4.07;1.95;;;;;;;;;;7394834;19;20138;-80
2022/04/12 05:14:43;;;;;;;4.43;2.05;;;;;;;;;;7393452;19;20099;-81
2022/04/12 05:17:08;;;;;;;2.50;1.83;;;;;;;;;;7394337;19;20384;-80
2022/04/12 05:19:34;;;;;;;2.95;1.73;;;;;;;;;;7395254;19;19994;-79
2022/04/12 05:21:59;;;;;;;2.22;1.58;;;;;;;;;;7393957;19;20363;-81
2022/04/12 05:24:24;;;;;;;2.35;1.85;;;;;;;;;;7393053;19;20003;-81
2022/04/12 05:26:50;;;;;;;3.53;1.45;;;;;;;;;;7394897;19;20008;-81
2022/04/12 05:29:16;;;;;;;2.30;1.55;;;;;;;;;;7392347;19;20347;-79
2022/04/12 05:31:41;;;;;;;2.80;1.88;;;;;;;;;;7394452;19;20508;-81
2022/04/12 05:34:06;;;;;;;3.17;1.67;;;;;;;;;;7393292;19;20042;-79
2022/04/12 05:36:32;;;;;;;5.03;1.95;;;;;;;;;;7394465;19;20006;-81
2022/04/12 05:38:57;;;;;;;2.90;2.15;;;;;;;;;;7388142;19;20010;-80
2022/04/12 05:41:22;;;;;;;4.50;1.85;;;;;;;;;;7393413;19;20620;-81
2022/04/12 05:43:47;;;;;;;2.72;1.92;;;;;;;;;;7391380;19;20027;-81
2022/04/12 05:46:13;;;;;;;3.97;2.03;;;;;;;;;;7390748;19;20927;-80
2022/04/12 05:48:38;;;;;;;4.40;2.22;;;;;;;;;;7397966;19;20006;-81
2022/04/12 05:51:03;;;;;;;3.83;2.47;;;;;;;;;;7395330;19;20002;-80
2022/04/12 05:53:29;;;;;;;3.13;1.88;;;;;;;;;;7394968;19;19999;-81
2022/04/12 05:55:55;;;;;;;3.28;2.10;;;;;;;;;;7395563;19;20387;-81
2022/04/12 05:58:20;;;;;;;3.13;2.28;;;;;;;;;;7392627;19;20746;-81
2022/04/12 06:00:45;;;;;;;4.70;2.63;;;;;;;;;;7392127;19;20098;-81
2022/04/12 06:03:10;;;;;;;3.72;2.20;;;;;;;;;;7396727;19;20002;-80
2022/04/12 06:05:36;;;;;;;4.22;2.42;;;;;;;;;;7390926;19;20018;-79
2022/04/12 06:08:03;;;;;;;4.38;2.60;;;;;;;;;;7395750;19;20500;-82
2022/04/12 06:10:28;;;;;;;3.80;2.45;;;;;;;;;;7393710;19;20030;-81
2022/04/12 06:12:53;;;;;;;5.75;2.90;;;;;;;;;;7393477;19;20371;-81
2022/04/12 06:15:19;;;;;;;4.47;2.55;;;;;;;;;;7394239;19;20036;-81
2022/04/12 06:17:44;;;;;;;5.57;2.97;;;;;;;;;;7402777;19;20019;-81
2022/04/12 06:20:12;;;;;;;5.65;3.33;;;;;;;;;;7395918;19;20022;-81
2022/04/12 06:22:38;;;;;;;4.57;2.53;;;;;;;;;;7399500;19;20533;-81
2022/04/12 06:25:06;;;;;;;3.72;2.60;;;;;;;;;;7395014;19;20025;-81
2022/04/12 06:27:41;;;;;;;5.88;3.00;;;;;;;;;;7396541;19;20002;-81
2022/04/12 06:30:13;;;;;;;4.88;2.83;;;;;;;;;;7394078;19;19995;-81
2022/04/12 06:32:39;;;;;;;5.00;2.65;;;;;;;;;;7395247;19;20003;-81
2022/04/12 06:35:06;;;;;;;4.25;2.97;;;;;;;;;;7390978;19;20019;-81
2022/04/12 06:37:32;;;;;;;4.50;2.92;;;;;;;;;;7397918;19;20018;-81
2022/04/12 06:39:57;;;;;;;5.63;3.00;;;;;;;;;;7394335;19;19994;-81
2022/04/12 06:42:23;;;;;;;5.13;3.22;;;;;;;;;;7394082;19;20013;-81
2022/04/12 06:44:48;;;;;;;8.23;2.97;;;;;;;;;;7393221;19;20003;-81
2022/04/12 06:47:15;;;;;;;4.95;3.15;;;;;;;;;;7394004;19;20010;-81
2022/04/12 06:49:43;;;;;;;5.78;3.20;;;;;;;;;;7394224;19;20350;-81
2022/04/12 06:52:08;;;;;;;5.65;3.40;;;;;;;;;;7393024;19;20048;-82
2022/04/12 06:54:33;;;;;;;4.72;3.13;;;;;;;;;;7393267;19;19994;-80
2022/04/12 06:56:59;;;;;;;6.32;3.13;;;;;;;;;;7393357;19;20477;-81
2022/04/12 06:59:25;;;;;;;7.40;3.40;;;;;;;;;;7392286;19;20007;-82
2022/04/12 07:01:51;;;;;;;4.78;2.75;;;;;;;;;;7390001;19;20011;-81
2022/04/12 07:04:16;;;;;;;5.30;3.05;;;;;;;;;;7391503;19;20012;-81
2022/04/12 07:06:41;;;;;;;4.97;2.90;;;;;;;;;;7391920;19;20005;-82
2022/04/12 07:09:09;;;;;;;7.70;4.32;;;;;;;;;;7392510;19;20461;-81
2022/04/12 07:11:34;;;;;;;5.45;3.13;;;;;;;;;;7394536;19;20010;-81
2022/04/12 07:14:00;;;;;;;6.15;3.67;;;;;;;;;;7392353;19;20010;-80
2022/04/12 07:16:25;;;;;;;5.60;3.10;;;;;;;;;;7392145;19;20006;-81
2022/04/12 07:18:50;;;;;;;7.07;4.00;;;;;;;;;;7391885;19;20461;-81
2022/04/12 07:21:21;;;;;;;5.68;2.90;;;;;;;;;;7390923;19;19998;-81
2022/04/12 07:23:47;;;;;;;3.95;2.58;;;;;;;;;;7392816;19;20536;-81
2022/04/12 07:26:12;;;;;;;5.18;2.60;;;;;;;;;;7391596;19;20014;-81
2022/04/12 07:28:38;;;;;;;6.53;3.20;;;;;;;;;;7391058;19;19998;-82
2022/04/12 07:31:04;;;;;;;3.00;2.70;;;;;;;;;;7392870;19;20006;-82
2022/04/12 07:33:30;;;;;;;3.88;2.60;;;;;;;;;;7393855;19;20003;-81
2022/04/12 07:35:55;;;;;;;4.15;2.80;;;;;;;;;;7393990;19;20001;-81
2022/04/12 07:38:20;;;;;;;3.60;2.75;;;;;;;;;;7395291;19;19998;-82
2022/04/12 07:40:45;;;;;;;4.00;2.85;;;;;;;;;;7390987;19;19994;-81
2022/04/12 07:43:11;;;;;;;3.75;2.70;;;;;;;;;;7393761;19;20002;-81
2022/04/12 07:45:37;;;;;;;6.30;2.80;;;;;;;;;;7391314;19;20074;-81
2022/04/12 07:48:02;;;;;;;4.65;2.72;;;;;;;;;;7398886;19;20020;-82
2022/04/12 07:50:27;;;;;;;8.35;3.33;;;;;;;;;;7397521;19;20007;-81
2022/04/12 07:52:53;;;;;;;5.85;3.13;;;;;;;;;;7398500;19;19995;-81
2022/04/12 07:55:18;;;;;;;5.72;3.53;;;;;;;;;;7401166;19;20006;-82
2022/04/12 07:57:43;;;;;;;4.00;3.00;;;;;;;;;;7399790;19;20062;-80
2022/04/12 08:00:09;;;;;;;4.82;3.15;;;;;;;;;;7395603;19;20016;-82
2022/04/12 08:02:35;;;;;;;5.32;3.22;;;;;;;;;;7398860;19;20095;-81
2022/04/12 08:05:00;;;;;;;6.28;3.13;;;;;;;;;;7395754;19;20504;-80
2022/04/12 08:07:25;;;;;;;4.95;2.97;;;;;;;;;;7398526;19;20006;-82
2022/04/12 08:09:50;;;;;;;3.88;2.85;;;;;;;;;;7396805;19;20060;-82
2022/04/12 08:12:16;;;;;;;4.40;2.50;;;;;;;;;;7397382;19;20510;-82
2022/04/12 08:14:41;;;;;;;3.15;2.58;;;;;;;;;;7395982;19;20074;-82
2022/04/12 08:17:06;;;;;;;3.42;2.50;;;;;;;;;;7398195;19;20097;-80
2022/04/12 08:19:32;;;;;;;3.00;2.10;;;;;;;;;;7399236;19;20009;-81
2022/04/12 08:22:00;;;;;;;4.90;2.90;;;;;;;;;;7394219;19;20007;-82
2022/04/12 08:24:25;;;;;;;6.72;3.00;;;;;;;;;;7400519;19;20062;-82
2022/04/12 08:26:50;;;;;;;5.00;3.10;;;;;;;;;;7402233;19;20016;-81
2022/04/12 08:29:16;;;;;;;4.18;2.00;;;;;;;;;;7396776;19;20009;-82
2022/04/12 08:31:41;;;;;;;3.83;2.70;;;;;;;;;;7398141;19;20003;-81
2022/04/12 08:34:06;;;;;;;12.15;2.78;;;;;;;;;;7396555;19;20032;-81
2022/04/12 08:36:31;;;;;;;3.38;2.22;;;;;;;;;;7396263;19;20031;-81
2022/04/12 08:38:57;;;;;;;3.20;2.05;;;;;;;;;;7397108;19;20074;-80
2022/04/12 08:41:24;;;;;;;6.03;2.35;;;;;;;;;;7393374;19;20006;-81
2022/04/12 08:43:55;;;;;;;4.65;2.53;;;;;;;;;;7395616;19;20435;-81
2022/04/12 08:46:24;;;;;;;6.78;3.03;;;;;;;;;;7396474;19;20099;-81
2022/04/12 08:48:51;;;;;;;3.30;2.45;;;;;;;;;;7395064;19;20026;-81
2022/04/12 08:51:16;;;;;;;4.38;3.40;;;;;;;;;;7395587;19;19998;-82
2022/04/12 08:53:42;;;;;;;5.00;2.70;;;;;;;;;;7394122;19;20007;-81
2022/04/12 08:56:08;;;;;;;3.97;2.85;;;;;;;;;;7397258;19;20011;-81
2022/04/12 08:58:33;;;;;;;3.65;2.55;;;;;;;;;;7391021;19;20058;-80
2022/04/12 09:01:00;;;;;;;4.70;2.72;;;;;;;;;;7393382;19;20013;-80
2022/04/12 09:03:25;;;;;;;3.60;2.30;;;;;;;;;;7395332;19;20003;-81
2022/04/12 09:05:52;;;;;;;3.67;2.38;;;;;;;;;;7392962;19;20018;-82
2022/04/12 09:08:29;;;;;;;3.92;2.47;;;;;;;;;;7393741;19;20029;-82
2022/04/12 09:11:07;;;;;;;8.07;2.75;;;;;;;;;;7399012;19;20501;-82
2022/04/12 09:13:33;;;;;;;5.63;2.75;;;;;;;;;;7396932;19;20010;-80
2022/04/12 09:15:59;;;;;;;3.83;2.30;;;;;;;;;;7397136;19;20009;-81
2022/04/12 09:18:35;;;;;;;7.45;2.63;;;;;;;;;;7392627;19;20002;-81
2022/04/12 09:21:27;;;;;;;;;;;;;;;;;;7394455;19;20019;-80
2022/04/12 09:23:55;;;;;;;3.03;2.17;;;;;;;;;;7393476;19;19917;-80
2022/04/12 09:26:28;;;;;;;4.65;2.20;;;;;;;;;;7393393;19;19996;-81
2022/04/12 09:28:56;;;;;;;6.15;2.60;;;;;;;;;;7392934;19;20015;-81
2022/04/12 09:31:22;;;;;;;2.35;1.98;;;;;;;;;;7395280;19;19995;-82
2022/04/12 09:33:51;;;;;;;4.38;2.67;;;;;;;;;;7394416;19;19995;-82
2022/04/12 09:36:16;;;;;;;3.30;2.40;;;;;;;;;;7391817;19;20461;-81
2022/04/12 09:38:43;;;;;;;6.13;2.72;;;;;;;;;;7393517;19;20018;-80
2022/04/12 09:41:22;;;;;;;4.82;2.45;;;;;;;;;;7392919;19;19998;-82
2022/04/12 09:43:57;;;;;;;5.68;2.80;;;;;;;;;;7396898;19;20083;-81
2022/04/12 09:46:24;;;;;;;3.50;2.40;;;;;;;;;;7393670;19;20006;-82
2022/04/12 09:48:52;;;;;;;3.25;2.50;;;;;;;;;;7393623;19;20338;-82
2022/04/12 09:51:20;;;;;;;5.18;2.50;;;;;;;;;;7391644;19;20050;-81
2022/04/12 09:53:45;;;;;;;6.85;2.35;;;;;;;;;;7392625;19;20327;-80
2022/04/12 09:56:15;;;;;;;5.07;2.80;;;;;;;;;;7396298;19;20449;-82
2022/04/12 09:58:41;;;;;;;2.92;2.20;;;;;;;;;;7392160;19;19998;-80
2022/04/12 10:01:09;;;;;;;3.95;2.33;;;;;;;;;;7395906;19;20373;-81
2022/04/12 10:03:35;;;;;;;3.63;1.80;;;;;;;;;;7393505;19;20038;-81
2022/04/12 10:06:02;;;;;;;3.45;1.90;;;;;;;;;;7392493;19;20001;-82
2022/04/12 10:08:30;;;;;;;4.78;1.85;;;;;;;;;;7391726;19;20003;-81
2022/04/12 10:10:55;;;;;;;2.60;1.67;;;;;;;;;;7392756;19;19998;-81
2022/04/12 10:13:21;;;;;;;1.50;1.40;;;;;;;;;;7392920;19;20791;-82
2022/04/12 10:15:46;;;;;;;2.97;1.83;;;;;;;;;;7393304;19;20037;-82
2022/04/12 10:18:16;;;;;;;3.88;1.90;;;;;;;;;;7390886;19;20304;-82
2022/04/12 10:20:43;;;;;;;3.47;2.10;;;;;;;;;;7392060;19;20022;-81
2022/04/12 10:23:09;;;;;;;4.13;1.98;;;;;;;;;;7394423;19;20006;-81
2022/04/12 10:25:35;;;;;;;2.13;1.60;;;;;;;;;;7394059;19;20006;-82
2022/04/12 10:28:04;;;;;;;2.13;1.70;;;;;;;;;;7393384;19;20431;-81
2022/04/12 10:30:31;;;;;;;2.58;1.73;;;;;;;;;;7393804;19;20006;-81
2022/04/12 10:33:04;;;;;;;2.83;1.90;;;;;;;;;;7395400;19;19999;-82
2022/04/12 10:35:56;;;;;;;2.13;1.88;;;;;;;;;;7392221;19;20010;-81
2022/04/12 10:38:36;;;;;;;2.75;1.80;;;;;;;;;;7392642;19;20125;-81
2022/04/12 10:41:11;;;;;;;2.58;1.70;;;;;;;;;;7393006;19;20003;-82
2022/04/12 10:43:38;;;;;;;2.85;2.03;;;;;;;;;;7393771;19;20126;-82
2022/04/12 10:46:06;;;;;;;3.92;1.67;;;;;;;;;;7393208;19;20320;-81
2022/04/12 10:48:32;;;;;;;3.67;1.70;;;;;;;;;;7393541;19;20493;-81
2022/04/12 10:51:02;;;;;;;2.55;1.40;;;;;;;;;;7395209;19;19995;-82
2022/04/12 10:53:40;;;;;;;3.75;1.67;;;;;;;;;;7395598;19;20091;-82
2022/04/12 10:56:05;;;;;;;1.65;1.20;;;;;;;;;;7395569;19;20014;-82
2022/04/12 10:58:33;;;;;;;1.97;1.63;;;;;;;;;;7391477;19;19999;-81
2022/04/12 11:00:59;;;;;;;2.45;1.55;;;;;;;;;;7391723;19;20921;-82
2022/04/12 11:03:45;;;;;;;5.80;1.45;;;;;;;;;;7392772;19;20013;-81
2022/04/12 11:06:12;;;;;;;5.03;1.77;;;;;;;;;;7392442;19;20002;-82
2022/04/12 11:08:37;;;;;;;3.80;1.70;;;;;;;;;;7392352;19;20017;-82
2022/04/12 11:11:06;;;;;;;3.23;1.50;;;;;;;;;;7393177;19;19995;-82
2022/04/12 11:13:33;;;;;;;2.17;1.63;;;;;;;;;;7392831;19;20262;-82
2022/04/12 11:16:09;;;;;;;1.60;1.50;;;;;;;;;;7390541;19;19999;-81
2022/04/12 11:18:52;;;;;;;2.25;1.27;;;;;;;;;;7391333;19;20371;-81
2022/04/12 11:21:26;;;;;;;2.13;1.13;;;;;;;;;;7394398;19;19990;-82
2022/04/12 11:23:59;;;;;;;1.85;1.40;;;;;;;;;;7402160;19;20018;-82
2022/04/12 11:26:40;;;;;;;6.63;1.35;;;;;;;;;;7400429;19;20026;-81
2022/04/12 11:29:17;;;;;;;9.00;1.55;;;;;;;;;;7398277;19;20010;-82
2022/04/12 11:31:47;;;;;;;2.80;1.40;;;;;;;;;;7408741;19;19999;-82
2022/04/12 11:34:13;;;;;;;1.50;1.10;;;;;;;;;;7398103;19;20035;-82
2022/04/12 11:36:42;;;;;;;1.42;1.15;;;;;;;;;;7400163;19;20041;-83
2022/04/12 11:39:08;;;;;;;4.20;1.25;;;;;;;;;;7399818;19;19996;-82
2022/04/12 11:41:33;;;;;;;2.15;1.58;;;;;;;;;;7399309;19;20006;-82
2022/04/12 11:44:03;;;;;;;3.75;1.33;;;;;;;;;;7405258;19;19999;-82
2022/04/12 11:46:30;;;;;;;1.73;1.27;;;;;;;;;;7405272;19;20114;-82
2022/04/12 11:49:10;;;;;;;4.07;1.20;;;;;;;;;;7423779;19;20262;-80
2022/04/12 11:51:42;;;;;;;1.23;1.05;;;;;;;;;;7427139;19;20046;-80
2022/04/12 11:54:29;;;;;;;2.50;1.13;;;;;;;;;;7426767;19;20026;-80
2022/04/12 11:56:59;;;;;;;2.00;1.48;;;;;;;;;;7425902;19;19995;-80
2022/04/12 11:59:24;;;;;;;3.28;1.40;;;;;;;;;;7402657;19;20365;-81
2022/04/12 12:01:49;;;;;;;3.20;1.33;;;;;;;;;;7396555;19;20018;-81
2022/04/12 12:04:15;;;;;;;2.15;1.40;;;;;;;;;;7396472;19;20326;-81
2022/04/12 12:07:10;;;;;;;3.08;1.13;;;;;;;;;;7398686;19;19999;-81
2022/04/12 12:09:36;;;;;;;4.88;1.48;;;;;;;;;;7395499;19;20006;-82
2022/04/12 12:12:05;;;;;;;1.77;1.27;;;;;;;;;;7398304;19;20026;-81
2022/04/12 12:14:31;;;;;;;1.30;1.20;;;;;;;;;;7396471;19;20028;-82
2022/04/12 12:17:03;;;;;;;1.83;1.20;;;;;;;;;;7398049;19;19995;-81
2022/04/12 12:19:29;;;;;;;3.28;1.67;;;;;;;;;;7397175;19;20070;-81
2022/04/12 12:21:55;;;;;;;1.45;1.13;;;;;;;;;;7397357;19;20020;-81
2022/04/12 12:24:20;;;;;;;1.50;1.40;;;;;;;;;;7396915;19;19994;-82
2022/04/12 12:26:46;;;;;;;2.50;1.20;;;;;;;;;;7397685;19;20002;-81
2022/04/12 12:29:14;;;;;;;1.33;1.23;;;;;;;;;;7399072;19;19994;-82
2022/04/12 12:31:43;;;;;;;1.70;1.20;;;;;;;;;;7395565;19;20487;-81
2022/04/12 12:34:09;;;;;;;4.35;1.20;;;;;;;;;;7397662;19;19995;-82
2022/04/12 12:36:34;;;;;;;2.15;1.10;;;;;;;;;;7398912;19;20002;-81
2022/04/12 12:39:07;;;;;;;3.05;1.10;;;;;;;;;;7396202;19;20336;-82
2022/04/12 12:41:33;;;;;;;1.70;1.30;;;;;;;;;;7394348;19;20022;-81
2022/04/12 12:44:03;;;;;;;1.13;0.90;;;;;;;;;;7395617;19;20103;-81
2022/04/12 12:46:34;;;;;;;1.08;0.90;;;;;;;;;;7396325;19;20006;-81
2022/04/12 12:49:10;;;;;;;3.13;1.17;;;;;;;;;;7395965;19;20166;-81
2022/04/12 12:51:38;;;;;;;1.27;1.10;;;;;;;;;;7396642;19;20002;-82
2022/04/12 12:54:04;;;;;;;1.77;1.30;;;;;;;;;;7395737;19;20363;-82
2022/04/12 12:56:33;;;;;;;3.30;1.40;;;;;;;;;;7398996;19;20359;-82
2022/04/12 12:59:18;;;;;;;1.83;1.17;;;;;;;;;;7394699;19;20315;-81
2022/04/12 13:01:44;;;;;;;1.52;1.05;;;;;;;;;;7395273;19;20001;-80
2022/04/12 13:04:22;;;;;;;0.82;0.82;;;;;;;;;;7396903;19;19998;-81
2022/04/12 13:07:00;;;;;;;1.30;1.05;;;;;;;;;;7398474;19;19997;-81
2022/04/12 13:09:26;;;;;;;1.20;1.10;;;;;;;;;;7399266;19;19994;-82
2022/04/12 13:11:51;;;;;;;1.70;1.10;;;;;;;;;;7396130;19;20501;-81
2022/04/12 13:14:16;;;;;;;1.52;1.20;;;;;;;;;;7394075;19;20002;-82
2022/04/12 13:16:41;;;;;;;1.70;1.20;;;;;;;;;;7396887;19;20001;-80
2022/04/12 13:19:07;;;;;;;1.70;1.00;;;;;;;;;;7395392;19;20028;-80
2022/04/12 13:21:32;;;;;;;1.10;0.88;;;;;;;;;;7393783;19;20015;-80
2022/04/12 13:23:57;;;;;;;1.33;0.82;;;;;;;;;;7399851;19;19999;-82
2022/04/12 13:26:22;;;;;;;2.35;1.10;;;;;;;;;;7399519;19;20002;-82
2022/04/12 13:28:48;;;;;;;1.45;1.10;;;;;;;;;;7393792;19;19994;-81
2022/04/12 13:31:13;;;;;;;2.78;1.30;;;;;;;;;;7395814;19;20003;-81
2022/04/12 13:33:38;;;;;;;1.05;0.95;;;;;;;;;;7395131;19;19999;-81
2022/04/12 13:36:04;;;;;;;7.53;1.40;;;;;;;;;;7395052;19;20445;-80
2022/04/12 13:38:29;;;;;;;1.98;0.90;;;;;;;;;;7393983;19;20003;-81
2022/04/12 13:40:54;;;;;;;1.95;1.13;;;;;;;;;;7394454;19;19999;-81
2022/04/12 13:43:19;;;;;;;1.90;1.10;;;;;;;;;;7394753;19;20357;-81
2022/04/12 13:45:45;;;;;;;1.80;1.00;;;;;;;;;;7396757;19;20787;-81
2022/04/12 13:48:10;;;;;;;6.07;1.20;;;;;;;;;;7393950;19;20003;-81
2022/04/12 13:50:35;;;;;;;1.70;1.00;;;;;;;;;;7393230;19;19998;-81
2022/04/12 13:53:01;;;;;;;1.25;1.00;;;;;;;;;;7393692;19;19998;-80
2022/04/12 13:55:26;;;;;;;3.15;1.20;;;;;;;;;;7394218;19;20135;-82
2022/04/12 13:57:51;;;;;;;1.67;1.20;;;;;;;;;;7395471;19;20034;-82
2022/04/12 14:00:23;;;;;;;3.38;1.05;;;;;;;;;;7393464;19;20399;-80
2022/04/12 14:02:48;;;;;;;1.65;1.00;;;;;;;;;;7397278;19;20590;-80
2022/04/12 14:05:14;;;;;;;2.70;1.33;;;;;;;;;;7396376;19;20011;-80
2022/04/12 14:07:39;;;;;;;2.00;1.17;;;;;;;;;;7399364;19;20011;-80
2022/04/12 14:10:05;;;;;;;1.15;1.02;;;;;;;;;;7396366;19;20016;-81
2022/04/12 14:12:30;;;;;;;1.33;1.00;;;;;;;;;;7398525;19;20040;-81
2022/04/12 14:14:55;;;;;;;1.88;1.00;;;;;;;;;;7396551;19;20006;-82
2022/04/12 14:17:21;;;;;;;1.20;0.98;;;;;;;;;;7395180;19;20094;-82
2022/04/12 14:19:47;;;;;;;3.80;1.20;;;;;;;;;;7394229;19;20002;-82
2022/04/12 14:22:12;;;;;;;2.45;1.20;;;;;;;;;;7394176;19;20029;-81
2022/04/12 14:24:40;;;;;;;4.45;1.55;;;;;;;;;;7392125;19;20020;-82
2022/04/12 14:27:05;;;;;;;1.20;1.10;;;;;;;;;;7397729;19;20000;-81
2022/04/12 14:29:31;;;;;;;4.07;1.42;;;;;;;;;;7393919;19;20009;-81
2022/04/12 14:31:56;;;;;;;1.60;1.50;;;;;;;;;;7395098;19;19991;-81
2022/04/12 14:34:21;;;;;;;1.73;1.35;;;;;;;;;;7394716;19;20532;-81
2022/04/12 14:36:47;;;;;;;4.82;1.58;;;;;;;;;;7394371;19;20002;-80
2022/04/12 14:39:12;;;;;;;4.00;1.13;;;;;;;;;;7393824;19;19991;-80
2022/04/12 14:41:37;;;;;;;2.10;1.33;;;;;;;;;;7394761;19;20006;-81
2022/04/12 14:44:05;;;;;;;2.65;1.48;;;;;;;;;;7395952;19;20002;-82